Eastern Dawn — WDE4132 — position and weather

sailwx.info

Track history (hours):
 
Tides and Currents Weather Stations Pressure Air Temp Water Temp Dewpoint Dewpoint Depression Visibility Wind Speed Wind Dir Waves Ship Positions

Eastern Dawn

Owner: EASTERN BARGE SERVICES INC, SYOSSET, NY. More information available from US FCC via Universal Licensing System and Coast Guard Vessel Documentation Center.

Last reported at 2017-Nov-18 09:47 UTC. Time now 2017-Nov-18 11:51 UTC.
Position N 40°31' W 074°04'.

Length 14 m; draft 2.5 m.

Type: Towing. MMSI: 367349170.

Date/timePositionNaut miles runAvg speedWind from/ knotsBaromVisibWave heightAir tempDewpointWater temp
2017-Nov-18 09:47N 40°31' W 074°04'2 7.1
2017-Nov-18 09:30N 40°32' W 074°02'3 5.2
2017-Nov-18 09:00N 40°34' W 073°60'3 6.4
2017-Nov-18 08:31N 40°34' W 073°55'3 6.1
2017-Nov-18 08:00N 40°35' W 073°51'3 5.5
2017-Nov-18 07:30N 40°36' W 073°48'3 6.1
2017-Nov-18 07:00N 40°38' W 073°45'0 0.0
2017-Nov-17 20:23N 40°38' W 073°45'0 0.4
2017-Nov-17 20:00N 40°38' W 073°45'0 0.0
2017-Nov-17 19:30N 40°38' W 073°45'1 1.1
2017-Nov-17 19:00N 40°38' W 073°46'2 4.8
2017-Nov-17 18:31N 40°36' W 073°48'2 3.6
2017-Nov-17 18:00N 40°35' W 073°50'2 3.1
2017-Nov-17 17:29N 40°35' W 073°52'2 4.2
2017-Nov-17 17:00N 40°34' W 073°54'2 3.9
2017-Nov-17 16:29N 40°34' W 073°57'3 5.6
2017-Nov-17 16:01N 40°34' W 074°00'2 3.3
2017-Nov-17 15:30N 40°33' W 074°02'9 0.5
2017-Nov-16 23:12N 40°36' W 074°12'1 3.9
2017-Nov-16 22:59N 40°36' W 074°12'3 5.4
2017-Nov-16 22:30N 40°39' W 074°11'3 5.1
2017-Nov-16 22:01N 40°39' W 074°08'3 5.5
2017-Nov-16 21:31N 40°39' W 074°04'3 5.3
2017-Nov-16 21:01N 40°41' W 074°01'2 4.7
2017-Nov-16 20:31N 40°42' W 073°59'2 4.6
2017-Nov-16 20:00N 40°45' W 073°58'4 7.3
2017-Nov-16 19:31N 40°47' W 073°55'1 1.9
2017-Nov-16 18:59N 40°48' W 073°54'0 0.0
2017-Nov-16 18:30N 40°48' W 073°54'0 0.0
2017-Nov-16 17:59N 40°48' W 073°54'0 0.0
2017-Nov-16 17:28N 40°48' W 073°54'0 0.0
2017-Nov-16 08:52N 40°48' W 073°54'1 2.6
2017-Nov-16 08:29N 40°47' W 073°55'3 6.2
2017-Nov-16 08:00N 40°45' W 073°58'3 6.0
2017-Nov-16 07:31N 40°42' W 073°59'3 6.3
2017-Nov-16 07:01N 40°40' W 074°02'2 4.8
2017-Nov-16 06:30N 40°39' W 074°05'0 0.2
2017-Nov-16 06:00N 40°39' W 074°05'0 0.0
2017-Nov-16 05:31N 40°39' W 074°05'0 0.0
2017-Nov-16 05:00N 40°39' W 074°05'0 0.0
2017-Nov-16 04:31N 40°39' W 074°05'0 0.0
2017-Nov-16 04:01N 40°39' W 074°05'0 0.0
2017-Nov-16 03:30N 40°39' W 074°05'0 0.0
2017-Nov-16 03:01N 40°39' W 074°05'0 0.0
2017-Nov-16 02:31N 40°39' W 074°05'0 0.0
2017-Nov-16 02:00N 40°39' W 074°05'0 0.0
2017-Nov-16 01:30N 40°39' W 074°05'0 0.0
2017-Nov-16 01:01N 40°39' W 074°05'0 0.0
2017-Nov-16 00:31N 40°39' W 074°05'0 0.0
2017-Nov-16 00:01N 40°39' W 074°05'0 0.0
2017-Nov-15 23:31N 40°39' W 074°05'0 0.0
2017-Nov-15 23:00N 40°39' W 074°05'0 0.0
2017-Nov-15 22:31N 40°39' W 074°05'0 0.0
2017-Nov-15 22:01N 40°39' W 074°05'0 0.0
2017-Nov-15 21:30N 40°39' W 074°05'0 0.0
2017-Nov-15 21:01N 40°39' W 074°05'0 0.0
2017-Nov-15 20:31N 40°39' W 074°05'0 0.0
2017-Nov-15 20:01N 40°39' W 074°05'0 0.0
2017-Nov-15 19:31N 40°39' W 074°05'0 0.0
2017-Nov-15 19:00N 40°39' W 074°05'3 5.0
2017-Nov-15 18:30N 40°40' W 074°02'1 2.3
2017-Nov-15 18:01N 40°40' W 074°01'0 0.0
2017-Nov-15 17:30N 40°40' W 074°01'0 0.0
2017-Nov-15 17:01N 40°40' W 074°01'0 0.0
2017-Nov-15 16:31N 40°40' W 074°01'0 0.0
2017-Nov-15 16:01N 40°40' W 074°01'0 0.0
2017-Nov-15 15:31N 40°40' W 074°01'0 0.0
2017-Nov-15 15:01N 40°40' W 074°01'0 0.0
2017-Nov-15 14:31N 40°40' W 074°01'0 0.0
2017-Nov-15 14:01N 40°40' W 074°01'0 0.0
2017-Nov-15 13:31N 40°40' W 074°01'0 0.0
2017-Nov-15 13:01N 40°40' W 074°01'0 0.0
2017-Nov-15 12:31N 40°40' W 074°01'0 0.0
2017-Nov-15 12:00N 40°40' W 074°01'0 0.0
2017-Nov-15 11:30N 40°40' W 074°01'0 0.0
2017-Nov-15 11:01N 40°40' W 074°01'0 0.0
2017-Nov-15 10:31N 40°40' W 074°01'0 0.0
2017-Nov-15 10:00N 40°40' W 074°01'0 0.0
2017-Nov-15 09:30N 40°40' W 074°01'0 0.0
2017-Nov-15 09:01N 40°40' W 074°01'0 0.0
2017-Nov-15 08:31N 40°40' W 074°01'0 0.0
2017-Nov-15 08:01N 40°40' W 074°01'0 0.0
2017-Nov-15 07:31N 40°40' W 074°01'0 0.0
2017-Nov-15 07:01N 40°40' W 074°01'0 0.0
2017-Nov-15 06:31N 40°40' W 074°01'0 0.0
2017-Nov-15 06:00N 40°40' W 074°01'0 0.0
2017-Nov-15 05:31N 40°40' W 074°01'3 5.4
2017-Nov-15 05:01N 40°42' W 073°59'2 4.7
2017-Nov-15 04:30N 40°44' W 073°56'0 0.3
2017-Nov-15 04:00N 40°44' W 073°56'1 2.9
2017-Nov-15 03:31N 40°44' W 073°58'1 1.9
2017-Nov-15 03:00N 40°43' W 073°58'1 2.2
2017-Nov-15 02:30N 40°42' W 073°60'2 3.5
2017-Nov-15 02:00N 40°41' W 074°01'2 4.9
2017-Nov-15 01:31N 40°40' W 074°04'3 6.8
2017-Nov-15 01:00N 40°39' W 074°08'3 5.9
2017-Nov-15 00:30N 40°38' W 074°12'3 5.5
2017-Nov-15 00:00N 40°35' W 074°12'2 4.8
2017-Nov-14 23:30N 40°33' W 074°14'2 0.2
2017-Nov-14 13:26N 40°35' W 074°12'3 7.3
2017-Nov-14 13:01N 40°38' W 074°12'3 6.1
2017-Nov-14 12:29N 40°39' W 074°07'3 5.3
2017-Nov-14 12:01N 40°39' W 074°04'3 6.0
2017-Nov-14 11:30N 40°40' W 074°00'0 0.0
2017-Nov-14 10:30N 40°40' W 074°00'0 0.0
2017-Nov-14 10:01N 40°40' W 074°00'0 0.0
2017-Nov-14 09:31N 40°40' W 074°00'0 0.0
2017-Nov-14 09:01N 40°40' W 074°00'0 0.0
2017-Nov-14 08:31N 40°40' W 074°00'0 0.0
2017-Nov-14 08:01N 40°40' W 074°00'0 0.0
2017-Nov-14 07:31N 40°40' W 074°00'0 0.0
2017-Nov-14 07:01N 40°40' W 074°00'0 0.0
2017-Nov-14 06:31N 40°40' W 074°00'0 0.0
2017-Nov-14 06:00N 40°40' W 074°00'0 0.0
2017-Nov-14 05:30N 40°40' W 074°00'0 0.0
2017-Nov-14 05:01N 40°40' W 074°00'0 0.0
2017-Nov-14 04:31N 40°40' W 074°00'0 0.5
2017-Nov-14 04:00N 40°40' W 074°01'0 0.0
2017-Nov-14 03:31N 40°40' W 074°01'0 0.0
2017-Nov-14 03:01N 40°40' W 074°01'0 0.0
2017-Nov-14 02:31N 40°40' W 074°01'0 0.0
2017-Nov-14 02:01N 40°40' W 074°01'0 0.0
2017-Nov-14 01:31N 40°40' W 074°01'0 0.0
2017-Nov-14 01:00N 40°40' W 074°01'0 0.0
2017-Nov-14 00:31N 40°40' W 074°01'0 0.0
2017-Nov-14 00:01N 40°40' W 074°01'0 0.0
2017-Nov-13 23:31N 40°40' W 074°01'0 0.5
2017-Nov-13 23:00N 40°40' W 074°00'0 0.0
2017-Nov-13 22:30N 40°40' W 074°00'2 3.2
2017-Nov-13 22:01N 40°39' W 074°02'6 0.3
2017-Nov-13 02:00N 40°44' W 073°56'0 0.0
2017-Nov-13 01:30N 40°44' W 073°56'0 0.0
2017-Nov-13 01:00N 40°44' W 073°56'0 0.0
2017-Nov-13 00:30N 40°44' W 073°56'0 0.0
2017-Nov-13 00:00N 40°44' W 073°56'0 0.0
2017-Nov-12 23:29N 40°44' W 073°56'0 0.0
2017-Nov-12 23:00N 40°44' W 073°56'0 0.0
2017-Nov-12 22:30N 40°44' W 073°56'0 0.0
2017-Nov-12 21:59N 40°44' W 073°56'0 0.0
2017-Nov-12 21:31N 40°44' W 073°56'0 0.0
2017-Nov-12 21:00N 40°44' W 073°56'0 0.0
2017-Nov-12 20:29N 40°44' W 073°56'0 0.0
2017-Nov-12 20:00N 40°44' W 073°56'0 0.0
2017-Nov-12 19:31N 40°44' W 073°56'0 0.0
2017-Nov-12 19:00N 40°44' W 073°56'1 1.3
2017-Nov-12 18:30N 40°43' W 073°56'2 3.6
2017-Nov-12 18:01N 40°44' W 073°58'4 7.6
2017-Nov-12 17:30N 40°41' W 074°01'3 5.9
2017-Nov-12 17:01N 40°40' W 074°04'2 4.9
2017-Nov-12 16:31N 40°39' W 074°07'3 5.0
2017-Nov-12 16:00N 40°39' W 074°10'3 4.9
2017-Nov-12 15:30N 40°37' W 074°12'3 5.2
2017-Nov-12 14:55N 40°34' W 074°13'2 0.2
2017-Nov-12 03:29N 40°33' W 074°15'3 5.2
2017-Nov-12 03:00N 40°34' W 074°13'4 7.4
2017-Nov-12 02:30N 40°38' W 074°12'3 6.7
2017-Nov-12 02:00N 40°39' W 074°07'3 6.1
2017-Nov-12 01:31N 40°40' W 074°04'4 7.8
2017-Nov-12 01:01N 40°42' W 073°60'4 7.5
2017-Nov-12 00:31N 40°45' W 073°57'4 8.3
2017-Nov-12 00:01N 40°48' W 073°53'4 7.8
2017-Nov-11 23:30N 40°48' W 073°48'4 0.3
2017-Nov-11 08:52N 40°52' W 073°49'1 2.2
2017-Nov-11 08:22N 40°51' W 073°49'2 4.0
2017-Nov-11 07:58N 40°49' W 073°48'1 1.1
2017-Nov-11 07:30N 40°49' W 073°47'1 2.2
2017-Nov-11 06:50N 40°48' W 073°49'2 6.0
2017-Nov-11 06:29N 40°48' W 073°52'3 7.0
2017-Nov-11 06:00N 40°47' W 073°56'4 8.0
2017-Nov-11 05:31N 40°43' W 073°58'4 7.2
2017-Nov-11 05:01N 40°41' W 074°02'3 5.7
2017-Nov-11 04:31N 40°39' W 074°05'2 4.7
2017-Nov-11 04:00N 40°39' W 074°08'3 5.2
2017-Nov-11 03:31N 40°39' W 074°11'2 3.7
2017-Nov-11 03:00N 40°37' W 074°12'3 5.4
2017-Nov-11 02:30N 40°34' W 074°13'2 0.2
2017-Nov-10 15:05N 40°33' W 074°15'0 0.0
2017-Nov-10 14:35N 40°33' W 074°15'0 0.0
2017-Nov-10 13:05N 40°33' W 074°15'3 6.7
2017-Nov-10 12:35N 40°35' W 074°12'1 7.2
2017-Nov-10 12:28N 40°36' W 074°12'3 6.5
2017-Nov-10 12:00N 40°39' W 074°10'3 5.6
2017-Nov-10 11:30N 40°39' W 074°07'3 5.6
2017-Nov-10 11:01N 40°40' W 074°03'4 8.6
2017-Nov-10 10:31N 40°42' W 073°59'5 9.6
2017-Nov-10 10:00N 40°47' W 073°56'4 7.7
2017-Nov-10 09:31N 40°48' W 073°51'3 0.2
2017-Nov-09 17:14N 40°49' W 073°48'1 4.2
2017-Nov-09 17:00N 40°48' W 073°47'4 7.5
2017-Nov-09 16:30N 40°48' W 073°52'4 8.9
2017-Nov-09 16:01N 40°46' W 073°57'4 8.2
2017-Nov-09 15:31N 40°42' W 073°60'4 7.2
2017-Nov-09 15:01N 40°40' W 074°03'3 5.6
2017-Nov-09 14:30N 40°39' W 074°07'3 5.5
2017-Nov-09 13:59N 40°39' W 074°11'3 5.5
2017-Nov-09 13:30N 40°36' W 074°12'2 0.1
2017-Nov-08 23:46N 40°34' W 074°13'2 6.5
2017-Nov-08 23:30N 40°36' W 074°12'3 6.7
2017-Nov-08 23:00N 40°39' W 074°09'3 6.3
2017-Nov-08 22:30N 40°39' W 074°05'4 7.2
2017-Nov-08 22:01N 40°40' W 074°01'0 0.2
2017-Nov-08 21:30N 40°40' W 074°01'0 0.0
2017-Nov-08 21:01N 40°40' W 074°01'0 0.0
2017-Nov-08 20:31N 40°40' W 074°01'0 0.0
2017-Nov-08 20:00N 40°40' W 074°01'0 0.0
2017-Nov-08 19:31N 40°40' W 074°01'0 0.0
2017-Nov-08 19:01N 40°40' W 074°01'0 0.0
2017-Nov-08 18:31N 40°40' W 074°01'0 0.0
2017-Nov-08 18:01N 40°40' W 074°01'1 2.9
2017-Nov-08 17:30N 40°42' W 074°00'3 6.1
2017-Nov-08 17:01N 40°44' W 073°58'3 5.1
2017-Nov-08 16:30N 40°46' W 073°57'2 4.6
2017-Nov-08 16:00N 40°48' W 073°54'1 2.0
2017-Nov-08 15:30N 40°48' W 073°53'3 5.3
2017-Nov-08 15:00N 40°48' W 073°50'2 4.6
2017-Nov-08 14:30N 40°49' W 073°47'  
Track history (hours):
 
Tides and Currents Weather Stations Pressure Air Temp Water Temp Dewpoint Dewpoint Depression Visibility Wind Speed Wind Dir Waves Ship Positions

Eastern Dawn

Owner: EASTERN BARGE SERVICES INC, SYOSSET, NY. More information available from US FCC via Universal Licensing System and Coast Guard Vessel Documentation Center.

Last reported at 2017-Nov-18 09:47 UTC. Time now 2017-Nov-18 11:51 UTC.
Position N 40°31' W 074°04'.

Length 14 m; draft 2.5 m.

Type: Towing. MMSI: 367349170.

Date/timePositionNaut miles runAvg speedWind from/ knotsBaromVisibWave heightAir tempDewpointWater temp
2017-Nov-18 09:47N 40°31' W 074°04'2 7.1
2017-Nov-18 09:30N 40°32' W 074°02'3 5.2
2017-Nov-18 09:00N 40°34' W 073°60'3 6.4
2017-Nov-18 08:31N 40°34' W 073°55'3 6.1
2017-Nov-18 08:00N 40°35' W 073°51'3 5.5
2017-Nov-18 07:30N 40°36' W 073°48'3 6.1
2017-Nov-18 07:00N 40°38' W 073°45'0 0.0
2017-Nov-17 20:23N 40°38' W 073°45'0 0.4
2017-Nov-17 20:00N 40°38' W 073°45'0 0.0
2017-Nov-17 19:30N 40°38' W 073°45'1 1.1
2017-Nov-17 19:00N 40°38' W 073°46'2 4.8
2017-Nov-17 18:31N 40°36' W 073°48'2 3.6
2017-Nov-17 18:00N 40°35' W 073°50'2 3.1
2017-Nov-17 17:29N 40°35' W 073°52'2 4.2
2017-Nov-17 17:00N 40°34' W 073°54'2 3.9
2017-Nov-17 16:29N 40°34' W 073°57'3 5.6
2017-Nov-17 16:01N 40°34' W 074°00'2 3.3
2017-Nov-17 15:30N 40°33' W 074°02'9 0.5
2017-Nov-16 23:12N 40°36' W 074°12'1 3.9
2017-Nov-16 22:59N 40°36' W 074°12'3 5.4
2017-Nov-16 22:30N 40°39' W 074°11'3 5.1
2017-Nov-16 22:01N 40°39' W 074°08'3 5.5
2017-Nov-16 21:31N 40°39' W 074°04'3 5.3
2017-Nov-16 21:01N 40°41' W 074°01'2 4.7
2017-Nov-16 20:31N 40°42' W 073°59'2 4.6
2017-Nov-16 20:00N 40°45' W 073°58'4 7.3
2017-Nov-16 19:31N 40°47' W 073°55'1 1.9
2017-Nov-16 18:59N 40°48' W 073°54'0 0.0
2017-Nov-16 18:30N 40°48' W 073°54'0 0.0
2017-Nov-16 17:59N 40°48' W 073°54'0 0.0
2017-Nov-16 17:28N 40°48' W 073°54'0 0.0
2017-Nov-16 08:52N 40°48' W 073°54'1 2.6
2017-Nov-16 08:29N 40°47' W 073°55'3 6.2
2017-Nov-16 08:00N 40°45' W 073°58'3 6.0
2017-Nov-16 07:31N 40°42' W 073°59'3 6.3
2017-Nov-16 07:01N 40°40' W 074°02'2 4.8
2017-Nov-16 06:30N 40°39' W 074°05'0 0.2
2017-Nov-16 06:00N 40°39' W 074°05'0 0.0
2017-Nov-16 05:31N 40°39' W 074°05'0 0.0
2017-Nov-16 05:00N 40°39' W 074°05'0 0.0
2017-Nov-16 04:31N 40°39' W 074°05'0 0.0
2017-Nov-16 04:01N 40°39' W 074°05'0 0.0
2017-Nov-16 03:30N 40°39' W 074°05'0 0.0
2017-Nov-16 03:01N 40°39' W 074°05'0 0.0
2017-Nov-16 02:31N 40°39' W 074°05'0 0.0
2017-Nov-16 02:00N 40°39' W 074°05'0 0.0
2017-Nov-16 01:30N 40°39' W 074°05'0 0.0
2017-Nov-16 01:01N 40°39' W 074°05'0 0.0
2017-Nov-16 00:31N 40°39' W 074°05'0 0.0
2017-Nov-16 00:01N 40°39' W 074°05'0 0.0
2017-Nov-15 23:31N 40°39' W 074°05'0 0.0
2017-Nov-15 23:00N 40°39' W 074°05'0 0.0
2017-Nov-15 22:31N 40°39' W 074°05'0 0.0
2017-Nov-15 22:01N 40°39' W 074°05'0 0.0
2017-Nov-15 21:30N 40°39' W 074°05'0 0.0
2017-Nov-15 21:01N 40°39' W 074°05'0 0.0
2017-Nov-15 20:31N 40°39' W 074°05'0 0.0
2017-Nov-15 20:01N 40°39' W 074°05'0 0.0
2017-Nov-15 19:31N 40°39' W 074°05'0 0.0
2017-Nov-15 19:00N 40°39' W 074°05'3 5.0
2017-Nov-15 18:30N 40°40' W 074°02'1 2.3
2017-Nov-15 18:01N 40°40' W 074°01'0 0.0
2017-Nov-15 17:30N 40°40' W 074°01'0 0.0
2017-Nov-15 17:01N 40°40' W 074°01'0 0.0
2017-Nov-15 16:31N 40°40' W 074°01'0 0.0
2017-Nov-15 16:01N 40°40' W 074°01'0 0.0
2017-Nov-15 15:31N 40°40' W 074°01'0 0.0
2017-Nov-15 15:01N 40°40' W 074°01'0 0.0
2017-Nov-15 14:31N 40°40' W 074°01'0 0.0
2017-Nov-15 14:01N 40°40' W 074°01'0 0.0
2017-Nov-15 13:31N 40°40' W 074°01'0 0.0
2017-Nov-15 13:01N 40°40' W 074°01'0 0.0
2017-Nov-15 12:31N 40°40' W 074°01'0 0.0
2017-Nov-15 12:00N 40°40' W 074°01'0 0.0
2017-Nov-15 11:30N 40°40' W 074°01'0 0.0
2017-Nov-15 11:01N 40°40' W 074°01'0 0.0
2017-Nov-15 10:31N 40°40' W 074°01'0 0.0
2017-Nov-15 10:00N 40°40' W 074°01'0 0.0
2017-Nov-15 09:30N 40°40' W 074°01'0 0.0
2017-Nov-15 09:01N 40°40' W 074°01'0 0.0
2017-Nov-15 08:31N 40°40' W 074°01'0 0.0
2017-Nov-15 08:01N 40°40' W 074°01'0 0.0
2017-Nov-15 07:31N 40°40' W 074°01'0 0.0
2017-Nov-15 07:01N 40°40' W 074°01'0 0.0
2017-Nov-15 06:31N 40°40' W 074°01'0 0.0
2017-Nov-15 06:00N 40°40' W 074°01'0 0.0
2017-Nov-15 05:31N 40°40' W 074°01'3 5.4
2017-Nov-15 05:01N 40°42' W 073°59'2 4.7
2017-Nov-15 04:30N 40°44' W 073°56'0 0.3
2017-Nov-15 04:00N 40°44' W 073°56'1 2.9
2017-Nov-15 03:31N 40°44' W 073°58'1 1.9
2017-Nov-15 03:00N 40°43' W 073°58'1 2.2
2017-Nov-15 02:30N 40°42' W 073°60'2 3.5
2017-Nov-15 02:00N 40°41' W 074°01'2 4.9
2017-Nov-15 01:31N 40°40' W 074°04'3 6.8
2017-Nov-15 01:00N 40°39' W 074°08'3 5.9
2017-Nov-15 00:30N 40°38' W 074°12'3 5.5
2017-Nov-15 00:00N 40°35' W 074°12'2 4.8
2017-Nov-14 23:30N 40°33' W 074°14'2 0.2
2017-Nov-14 13:26N 40°35' W 074°12'3 7.3
2017-Nov-14 13:01N 40°38' W 074°12'3 6.1
2017-Nov-14 12:29N 40°39' W 074°07'3 5.3
2017-Nov-14 12:01N 40°39' W 074°04'3 6.0
2017-Nov-14 11:30N 40°40' W 074°00'0 0.0
2017-Nov-14 10:30N 40°40' W 074°00'0 0.0
2017-Nov-14 10:01N 40°40' W 074°00'0 0.0
2017-Nov-14 09:31N 40°40' W 074°00'0 0.0
2017-Nov-14 09:01N 40°40' W 074°00'0 0.0
2017-Nov-14 08:31N 40°40' W 074°00'0 0.0
2017-Nov-14 08:01N 40°40' W 074°00'0 0.0
2017-Nov-14 07:31N 40°40' W 074°00'0 0.0
2017-Nov-14 07:01N 40°40' W 074°00'0 0.0
2017-Nov-14 06:31N 40°40' W 074°00'0 0.0
2017-Nov-14 06:00N 40°40' W 074°00'0 0.0
2017-Nov-14 05:30N 40°40' W 074°00'0 0.0
2017-Nov-14 05:01N 40°40' W 074°00'0 0.0
2017-Nov-14 04:31N 40°40' W 074°00'0 0.5
2017-Nov-14 04:00N 40°40' W 074°01'0 0.0
2017-Nov-14 03:31N 40°40' W 074°01'0 0.0
2017-Nov-14 03:01N 40°40' W 074°01'0 0.0
2017-Nov-14 02:31N 40°40' W 074°01'0 0.0
2017-Nov-14 02:01N 40°40' W 074°01'0 0.0
2017-Nov-14 01:31N 40°40' W 074°01'0 0.0
2017-Nov-14 01:00N 40°40' W 074°01'0 0.0
2017-Nov-14 00:31N 40°40' W 074°01'0 0.0
2017-Nov-14 00:01N 40°40' W 074°01'0 0.0
2017-Nov-13 23:31N 40°40' W 074°01'0 0.5
2017-Nov-13 23:00N 40°40' W 074°00'0 0.0
2017-Nov-13 22:30N 40°40' W 074°00'2 3.2
2017-Nov-13 22:01N 40°39' W 074°02'6 0.3
2017-Nov-13 02:00N 40°44' W 073°56'0 0.0
2017-Nov-13 01:30N 40°44' W 073°56'0 0.0
2017-Nov-13 01:00N 40°44' W 073°56'0 0.0
2017-Nov-13 00:30N 40°44' W 073°56'0 0.0
2017-Nov-13 00:00N 40°44' W 073°56'0 0.0
2017-Nov-12 23:29N 40°44' W 073°56'0 0.0
2017-Nov-12 23:00N 40°44' W 073°56'0 0.0
2017-Nov-12 22:30N 40°44' W 073°56'0 0.0
2017-Nov-12 21:59N 40°44' W 073°56'0 0.0
2017-Nov-12 21:31N 40°44' W 073°56'0 0.0
2017-Nov-12 21:00N 40°44' W 073°56'0 0.0
2017-Nov-12 20:29N 40°44' W 073°56'0 0.0
2017-Nov-12 20:00N 40°44' W 073°56'0 0.0
2017-Nov-12 19:31N 40°44' W 073°56'0 0.0
2017-Nov-12 19:00N 40°44' W 073°56'1 1.3
2017-Nov-12 18:30N 40°43' W 073°56'2 3.6
2017-Nov-12 18:01N 40°44' W 073°58'4 7.6
2017-Nov-12 17:30N 40°41' W 074°01'3 5.9
2017-Nov-12 17:01N 40°40' W 074°04'2 4.9
2017-Nov-12 16:31N 40°39' W 074°07'3 5.0
2017-Nov-12 16:00N 40°39' W 074°10'3 4.9
2017-Nov-12 15:30N 40°37' W 074°12'3 5.2
2017-Nov-12 14:55N 40°34' W 074°13'2 0.2
2017-Nov-12 03:29N 40°33' W 074°15'3 5.2
2017-Nov-12 03:00N 40°34' W 074°13'4 7.4
2017-Nov-12 02:30N 40°38' W 074°12'3 6.7
2017-Nov-12 02:00N 40°39' W 074°07'3 6.1
2017-Nov-12 01:31N 40°40' W 074°04'4 7.8
2017-Nov-12 01:01N 40°42' W 073°60'4 7.5
2017-Nov-12 00:31N 40°45' W 073°57'4 8.3
2017-Nov-12 00:01N 40°48' W 073°53'4 7.8
2017-Nov-11 23:30N 40°48' W 073°48'4 0.3
2017-Nov-11 08:52N 40°52' W 073°49'1 2.2
2017-Nov-11 08:22N 40°51' W 073°49'2 4.0
2017-Nov-11 07:58N 40°49' W 073°48'1 1.1
2017-Nov-11 07:30N 40°49' W 073°47'1 2.2
2017-Nov-11 06:50N 40°48' W 073°49'2 6.0
2017-Nov-11 06:29N 40°48' W 073°52'3 7.0
2017-Nov-11 06:00N 40°47' W 073°56'4 8.0
2017-Nov-11 05:31N 40°43' W 073°58'4 7.2
2017-Nov-11 05:01N 40°41' W 074°02'3 5.7
2017-Nov-11 04:31N 40°39' W 074°05'2 4.7
2017-Nov-11 04:00N 40°39' W 074°08'3 5.2
2017-Nov-11 03:31N 40°39' W 074°11'2 3.7
2017-Nov-11 03:00N 40°37' W 074°12'3 5.4
2017-Nov-11 02:30N 40°34' W 074°13'2 0.2
2017-Nov-10 15:05N 40°33' W 074°15'0 0.0
2017-Nov-10 14:35N 40°33' W 074°15'0 0.0
2017-Nov-10 13:05N 40°33' W 074°15'3 6.7
2017-Nov-10 12:35N 40°35' W 074°12'1 7.2
2017-Nov-10 12:28N 40°36' W 074°12'3 6.5
2017-Nov-10 12:00N 40°39' W 074°10'3 5.6
2017-Nov-10 11:30N 40°39' W 074°07'3 5.6
2017-Nov-10 11:01N 40°40' W 074°03'4 8.6
2017-Nov-10 10:31N 40°42' W 073°59'5 9.6
2017-Nov-10 10:00N 40°47' W 073°56'4 7.7
2017-Nov-10 09:31N 40°48' W 073°51'3 0.2
2017-Nov-09 17:14N 40°49' W 073°48'1 4.2
2017-Nov-09 17:00N 40°48' W 073°47'4 7.5
2017-Nov-09 16:30N 40°48' W 073°52'4 8.9
2017-Nov-09 16:01N 40°46' W 073°57'4 8.2
2017-Nov-09 15:31N 40°42' W 073°60'4 7.2
2017-Nov-09 15:01N 40°40' W 074°03'3 5.6
2017-Nov-09 14:30N 40°39' W 074°07'3 5.5
2017-Nov-09 13:59N 40°39' W 074°11'3 5.5
2017-Nov-09 13:30N 40°36' W 074°12'2 0.1
2017-Nov-08 23:46N 40°34' W 074°13'2 6.5
2017-Nov-08 23:30N 40°36' W 074°12'3 6.7
2017-Nov-08 23:00N 40°39' W 074°09'3 6.3
2017-Nov-08 22:30N 40°39' W 074°05'4 7.2
2017-Nov-08 22:01N 40°40' W 074°01'0 0.2
2017-Nov-08 21:30N 40°40' W 074°01'0 0.0
2017-Nov-08 21:01N 40°40' W 074°01'0 0.0
2017-Nov-08 20:31N 40°40' W 074°01'0 0.0
2017-Nov-08 20:00N 40°40' W 074°01'0 0.0
2017-Nov-08 19:31N 40°40' W 074°01'0 0.0
2017-Nov-08 19:01N 40°40' W 074°01'0 0.0
2017-Nov-08 18:31N 40°40' W 074°01'0 0.0
2017-Nov-08 18:01N 40°40' W 074°01'1 2.9
2017-Nov-08 17:30N 40°42' W 074°00'3 6.1
2017-Nov-08 17:01N 40°44' W 073°58'3 5.1
2017-Nov-08 16:30N 40°46' W 073°57'2 4.6
2017-Nov-08 16:00N 40°48' W 073°54'1 2.0
2017-Nov-08 15:30N 40°48' W 073°53'3 5.3
2017-Nov-08 15:00N 40°48' W 073°50'2 4.6
2017-Nov-08 14:30N 40°49' W 073°47'  

Dump ship's entire track history